sensor_id;sensor_type;location;lat;lon;timestamp;pressure;altitude;pressure_sealevel;temperature;humidity
46782;BME280;32541;46.298;11.506;2023-09-18T00:00:19;89969.22;;;15.76;97.32
46782;BME280;32541;46.298;11.506;2023-09-18T00:02:46;89968.13;;;15.70;97.90
46782;BME280;32541;46.298;11.506;2023-09-18T00:05:12;89965.00;;;15.64;97.45
46782;BME280;32541;46.298;11.506;2023-09-18T00:07:41;89968.34;;;15.50;98.00
46782;BME280;32541;46.298;11.506;2023-09-18T00:10:07;89973.63;;;15.46;98.36
46782;BME280;32541;46.298;11.506;2023-09-18T00:12:33;89971.13;;;15.50;97.88
46782;BME280;32541;46.298;11.506;2023-09-18T00:14:58;89970.06;;;15.55;97.20
46782;BME280;32541;46.298;11.506;2023-09-18T00:17:23;89960.19;;;15.52;96.96
46782;BME280;32541;46.298;11.506;2023-09-18T00:19:49;89956.31;;;15.57;97.01
46782;BME280;32541;46.298;11.506;2023-09-18T00:22:16;89955.00;;;15.47;97.47
46782;BME280;32541;46.298;11.506;2023-09-18T00:24:42;89943.97;;;15.37;98.65
46782;BME280;32541;46.298;11.506;2023-09-18T00:27:07;89944.66;;;15.26;99.28
46782;BME280;32541;46.298;11.506;2023-09-18T00:29:33;89952.88;;;15.24;99.63
46782;BME280;32541;46.298;11.506;2023-09-18T00:31:58;89940.09;;;15.19;99.76
46782;BME280;32541;46.298;11.506;2023-09-18T00:34:23;89943.97;;;15.14;99.74
46782;BME280;32541;46.298;11.506;2023-09-18T00:36:49;89938.41;;;15.14;99.36
46782;BME280;32541;46.298;11.506;2023-09-18T00:39:14;89936.22;;;15.13;99.50
46782;BME280;32541;46.298;11.506;2023-09-18T00:41:40;89927.72;;;15.20;98.87
46782;BME280;32541;46.298;11.506;2023-09-18T00:44:06;89923.94;;;15.16;98.84
46782;BME280;32541;46.298;11.506;2023-09-18T00:46:32;89932.38;;;15.18;99.10
46782;BME280;32541;46.298;11.506;2023-09-18T00:48:58;89932.00;;;15.00;100.00
46782;BME280;32541;46.298;11.506;2023-09-18T00:51:24;89936.91;;;14.90;100.00
46782;BME280;32541;46.298;11.506;2023-09-18T00:53:50;89934.22;;;14.80;100.00
46782;BME280;32541;46.298;11.506;2023-09-18T00:56:16;89925.19;;;14.80;100.00
46782;BME280;32541;46.298;11.506;2023-09-18T00:58:43;89921.94;;;14.72;100.00
46782;BME280;32541;46.298;11.506;2023-09-18T01:01:11;89921.22;;;14.71;100.00
46782;BME280;32541;46.298;11.506;2023-09-18T01:03:37;89913.75;;;14.74;100.00
46782;BME280;32541;46.298;11.506;2023-09-18T01:06:02;89908.47;;;14.78;100.00
46782;BME280;32541;46.298;11.506;2023-09-18T01:08:28;89912.44;;;14.75;100.00
46782;BME280;32541;46.298;11.506;2023-09-18T01:13:51;89908.22;;;14.74;100.00
46782;BME280;32541;46.298;11.506;2023-09-18T01:16:36;89907.47;;;14.73;100.00
46782;BME280;32541;46.298;11.506;2023-09-18T01:19:02;89897.03;;;14.72;100.00
46782;BME280;32541;46.298;11.506;2023-09-18T01:21:28;89892.91;;;14.73;100.00
46782;BME280;32541;46.298;11.506;2023-09-18T01:23:54;89902.69;;;14.74;100.00
46782;BME280;32541;46.298;11.506;2023-09-18T01:26:19;89885.84;;;14.70;100.00
46782;BME280;32541;46.298;11.506;2023-09-18T01:28:44;89878.81;;;14.57;100.00
46782;BME280;32541;46.298;11.506;2023-09-18T01:31:10;89870.97;;;14.54;100.00
46782;BME280;32541;46.298;11.506;2023-09-18T01:33:37;89875.53;;;14.49;100.00
46782;BME280;32541;46.298;11.506;2023-09-18T01:36:03;89873.47;;;14.50;100.00
46782;BME280;32541;46.298;11.506;2023-09-18T01:38:29;89876.00;;;14.45;100.00
46782;BME280;32541;46.298;11.506;2023-09-18T01:40:55;89869.84;;;14.35;100.00
46782;BME280;32541;46.298;11.506;2023-09-18T01:43:20;89880.16;;;14.35;100.00
46782;BME280;32541;46.298;11.506;2023-09-18T01:45:47;89866.16;;;14.21;100.00
46782;BME280;32541;46.298;11.506;2023-09-18T01:50:57;89859.50;;;14.15;100.00
46782;BME280;32541;46.298;11.506;2023-09-18T01:53:22;89858.19;;;14.16;100.00
46782;BME280;32541;46.298;11.506;2023-09-18T01:55:48;89859.03;;;14.18;100.00
46782;BME280;32541;46.298;11.506;2023-09-18T01:58:13;89855.16;;;14.12;100.00
46782;BME280;32541;46.298;11.506;2023-09-18T02:00:39;89855.78;;;14.10;100.00
46782;BME280;32541;46.298;11.506;2023-09-18T02:03:05;89847.97;;;14.18;100.00
46782;BME280;32541;46.298;11.506;2023-09-18T02:05:30;89848.47;;;14.26;100.00
46782;BME280;32541;46.298;11.506;2023-09-18T02:07:55;89853.91;;;14.24;100.00
46782;BME280;32541;46.298;11.506;2023-09-18T02:10:21;89842.56;;;14.20;100.00
46782;BME280;32541;46.298;11.506;2023-09-18T02:12:46;89841.25;;;14.21;100.00
46782;BME280;32541;46.298;11.506;2023-09-18T02:15:12;89833.69;;;14.22;100.00
46782;BME280;32541;46.298;11.506;2023-09-18T02:17:37;89834.28;;;14.20;100.00
46782;BME280;32541;46.298;11.506;2023-09-18T02:20:04;89829.47;;;14.21;100.00
46782;BME280;32541;46.298;11.506;2023-09-18T02:22:36;89822.81;;;14.14;100.00
46782;BME280;32541;46.298;11.506;2023-09-18T02:25:03;89809.00;;;14.14;100.00
46782;BME280;32541;46.298;11.506;2023-09-18T02:27:28;89804.53;;;14.09;100.00
46782;BME280;32541;46.298;11.506;2023-09-18T02:29:54;89797.16;;;14.02;100.00
46782;BME280;32541;46.298;11.506;2023-09-18T02:32:19;89792.03;;;14.08;100.00
46782;BME280;32541;46.298;11.506;2023-09-18T02:34:44;89789.84;;;13.95;100.00
46782;BME280;32541;46.298;11.506;2023-09-18T02:37:10;89790.75;;;13.88;100.00
46782;BME280;32541;46.298;11.506;2023-09-18T02:39:35;89792.06;;;13.87;100.00
46782;BME280;32541;46.298;11.506;2023-09-18T02:42:00;89790.75;;;13.88;100.00
46782;BME280;32541;46.298;11.506;2023-09-18T02:44:26;89789.09;;;13.95;100.00
46782;BME280;32541;46.298;11.506;2023-09-18T02:46:51;89789.16;;;14.06;100.00
46782;BME280;32541;46.298;11.506;2023-09-18T02:49:17;89792.97;;;14.01;100.00
46782;BME280;32541;46.298;11.506;2023-09-18T02:51:43;89775.88;;;13.93;100.00
46782;BME280;32541;46.298;11.506;2023-09-18T02:54:08;89769.16;;;13.96;100.00
46782;BME280;32541;46.298;11.506;2023-09-18T02:56:33;89779.44;;;13.84;100.00
46782;BME280;32541;46.298;11.506;2023-09-18T02:58:59;89773.78;;;13.82;100.00
46782;BME280;32541;46.298;11.506;2023-09-18T03:01:24;89775.88;;;13.93;100.00
46782;BME280;32541;46.298;11.506;2023-09-18T03:03:50;89776.66;;;13.84;100.00
46782;BME280;32541;46.298;11.506;2023-09-18T03:06:15;89778.84;;;13.85;100.00
46782;BME280;32541;46.298;11.506;2023-09-18T03:08:41;89782.72;;;13.92;100.00
46782;BME280;32541;46.298;11.506;2023-09-18T03:11:13;89787.72;;;13.84;100.00
46782;BME280;32541;46.298;11.506;2023-09-18T03:13:43;89787.34;;;13.78;100.00
46782;BME280;32541;46.298;11.506;2023-09-18T03:16:10;89776.03;;;13.74;100.00
46782;BME280;32541;46.298;11.506;2023-09-18T03:18:36;89782.19;;;13.84;100.00
46782;BME280;32541;46.298;11.506;2023-09-18T03:21:02;89805.25;;;13.77;100.00
46782;BME280;32541;46.298;11.506;2023-09-18T03:23:27;89797.88;;;13.70;100.00
46782;BME280;32541;46.298;11.506;2023-09-18T03:25:52;89803.47;;;13.60;100.00
46782;BME280;32541;46.298;11.506;2023-09-18T03:28:18;89805.53;;;13.60;100.00
46782;BME280;32541;46.298;11.506;2023-09-18T03:30:43;89808.03;;;13.56;100.00
46782;BME280;32541;46.298;11.506;2023-09-18T03:33:09;89810.91;;;13.58;100.00
46782;BME280;32541;46.298;11.506;2023-09-18T03:35:45;89812.31;;;13.68;100.00
46782;BME280;32541;46.298;11.506;2023-09-18T03:38:11;89802.91;;;13.62;100.00
46782;BME280;32541;46.298;11.506;2023-09-18T03:40:36;89805.00;;;13.52;100.00
46782;BME280;32541;46.298;11.506;2023-09-18T03:43:02;89796.72;;;13.52;100.00
46782;BME280;32541;46.298;11.506;2023-09-18T03:45:27;89790.00;;;13.55;100.00
46782;BME280;32541;46.298;11.506;2023-09-18T03:47:53;89781.97;;;13.59;100.00
46782;BME280;32541;46.298;11.506;2023-09-18T03:50:18;89782.03;;;13.49;100.00
46782;BME280;32541;46.298;11.506;2023-09-18T03:52:44;89778.09;;;13.52;100.00
46782;BME280;32541;46.298;11.506;2023-09-18T03:55:09;89762.38;;;13.55;100.00
46782;BME280;32541;46.298;11.506;2023-09-18T03:57:35;89759.38;;;13.51;100.00
46782;BME280;32541;46.298;11.506;2023-09-18T04:00:02;89747.66;;;13.41;100.00
46782;BME280;32541;46.298;11.506;2023-09-18T04:02:28;89751.47;;;13.35;100.00
46782;BME280;32541;46.298;11.506;2023-09-18T04:04:55;89742.94;;;13.31;100.00
46782;BME280;32541;46.298;11.506;2023-09-18T04:07:20;89742.13;;;13.41;100.00
46782;BME280;32541;46.298;11.506;2023-09-18T04:09:46;89737.84;;;13.49;100.00
46782;BME280;32541;46.298;11.506;2023-09-18T04:12:12;89719.75;;;13.58;100.00
46782;BME280;32541;46.298;11.506;2023-09-18T04:14:38;89719.75;;;13.58;100.00
46782;BME280;32541;46.298;11.506;2023-09-18T04:17:03;89713.50;;;13.57;100.00
46782;BME280;32541;46.298;11.506;2023-09-18T04:19:29;89708.69;;;13.58;100.00
46782;BME280;32541;46.298;11.506;2023-09-18T04:21:55;89714.22;;;13.58;100.00
46782;BME280;32541;46.298;11.506;2023-09-18T04:24:21;89703.16;;;13.58;100.00
46782;BME280;32541;46.298;11.506;2023-09-18T04:26:46;89701.59;;;13.55;100.00
46782;BME280;32541;46.298;11.506;2023-09-18T04:29:12;89695.72;;;13.60;100.00
46782;BME280;32541;46.298;11.506;2023-09-18T04:31:37;89697.72;;;13.48;100.00
46782;BME280;32541;46.298;11.506;2023-09-18T04:34:03;89714.44;;;13.50;100.00
46782;BME280;32541;46.298;11.506;2023-09-18T04:36:29;89723.69;;;13.55;100.00
46782;BME280;32541;46.298;11.506;2023-09-18T04:38:54;89720.53;;;13.49;100.00
46782;BME280;32541;46.298;11.506;2023-09-18T04:41:20;89723.75;;;13.66;100.00
46782;BME280;32541;46.298;11.506;2023-09-18T04:43:45;89716.13;;;13.55;100.00
46782;BME280;32541;46.298;11.506;2023-09-18T04:46:11;89706.88;;;13.51;100.00
46782;BME280;32541;46.298;11.506;2023-09-18T04:48:36;89707.91;;;13.46;100.00
46782;BME280;32541;46.298;11.506;2023-09-18T04:51:02;89712.41;;;13.51;100.00
46782;BME280;32541;46.298;11.506;2023-09-18T04:53:29;89718.50;;;13.49;100.00
46782;BME280;32541;46.298;11.506;2023-09-18T04:55:55;89722.13;;;13.52;100.00
46782;BME280;32541;46.298;11.506;2023-09-18T04:58:20;89719.81;;;13.48;100.00
46782;BME280;32541;46.298;11.506;2023-09-18T05:00:46;89716.59;;;13.52;100.00
46782;BME280;32541;46.298;11.506;2023-09-18T05:03:14;89718.38;;;13.47;100.00
46782;BME280;32541;46.298;11.506;2023-09-18T05:05:39;89714.41;;;13.39;100.00
46782;BME280;32541;46.298;11.506;2023-09-18T05:08:07;89726.88;;;13.40;100.00
46782;BME280;32541;46.298;11.506;2023-09-18T05:10:36;89718.69;;;13.30;100.00
46782;BME280;32541;46.298;11.506;2023-09-18T05:13:02;89723.72;;;13.33;100.00
46782;BME280;32541;46.298;11.506;2023-09-18T05:15:28;89729.09;;;13.53;100.00
46782;BME280;32541;46.298;11.506;2023-09-18T05:17:57;89734.22;;;13.47;100.00
46782;BME280;32541;46.298;11.506;2023-09-18T05:20:24;89732.75;;;13.67;100.00
46782;BME280;32541;46.298;11.506;2023-09-18T05:22:51;89729.94;;;13.88;100.00
46782;BME280;32541;46.298;11.506;2023-09-18T05:25:21;89739.22;;;13.93;100.00
46782;BME280;32541;46.298;11.506;2023-09-18T05:27:47;89739.28;;;14.16;100.00
46782;BME280;32541;46.298;11.506;2023-09-18T05:30:21;89743.78;;;14.32;100.00
46782;BME280;32541;46.298;11.506;2023-09-18T05:32:47;89740.28;;;14.43;100.00
46782;BME280;32541;46.298;11.506;2023-09-18T05:35:13;89753.91;;;14.39;98.02
46782;BME280;32541;46.298;11.506;2023-09-18T05:37:39;89752.75;;;14.21;97.61
46782;BME280;32541;46.298;11.506;2023-09-18T05:40:06;89752.69;;;13.98;99.07
46782;BME280;32541;46.298;11.506;2023-09-18T05:42:35;89750.13;;;13.90;99.94
46782;BME280;32541;46.298;11.506;2023-09-18T05:45:03;89759.13;;;13.79;100.00
46782;BME280;32541;46.298;11.506;2023-09-18T05:47:33;89761.16;;;13.79;100.00
46782;BME280;32541;46.298;11.506;2023-09-18T05:49:59;89779.19;;;13.80;100.00
46782;BME280;32541;46.298;11.506;2023-09-18T05:52:25;89788.34;;;13.82;100.00
46782;BME280;32541;46.298;11.506;2023-09-18T05:54:50;89780.25;;;13.75;100.00
46782;BME280;32541;46.298;11.506;2023-09-18T05:57:17;89797.34;;;13.83;100.00
46782;BME280;32541;46.298;11.506;2023-09-18T05:59:42;89783.78;;;13.87;100.00
46782;BME280;32541;46.298;11.506;2023-09-18T06:02:10;89780.69;;;13.93;100.00
46782;BME280;32541;46.298;11.506;2023-09-18T06:04:36;89773.72;;;13.91;100.00
46782;BME280;32541;46.298;11.506;2023-09-18T06:07:05;89777.59;;;13.98;100.00
46782;BME280;32541;46.298;11.506;2023-09-18T06:09:31;89786.13;;;14.02;100.00
46782;BME280;32541;46.298;11.506;2023-09-18T06:11:56;89787.34;;;14.11;100.00
46782;BME280;32541;46.298;11.506;2023-09-18T06:14:22;89775.13;;;14.25;100.00
46782;BME280;32541;46.298;11.506;2023-09-18T06:16:48;89778.13;;;14.29;100.00
46782;BME280;32541;46.298;11.506;2023-09-18T06:19:14;89783.66;;;14.29;100.00
46782;BME280;32541;46.298;11.506;2023-09-18T06:21:40;89783.97;;;14.33;100.00
46782;BME280;32541;46.298;11.506;2023-09-18T06:24:06;89777.09;;;14.34;100.00
46782;BME280;32541;46.298;11.506;2023-09-18T06:26:32;89785.66;;;14.38;100.00
46782;BME280;32541;46.298;11.506;2023-09-18T06:28:57;89772.19;;;14.44;100.00
46782;BME280;32541;46.298;11.506;2023-09-18T06:31:22;89777.63;;;14.54;100.00
46782;BME280;32541;46.298;11.506;2023-09-18T06:33:49;89782.78;;;14.60;100.00
46782;BME280;32541;46.298;11.506;2023-09-18T06:36:14;89793.25;;;14.73;100.00
46782;BME280;32541;46.298;11.506;2023-09-18T06:38:41;89782.81;;;14.83;100.00
46782;BME280;32541;46.298;11.506;2023-09-18T06:41:07;89776.66;;;14.73;98.83
46782;BME280;32541;46.298;11.506;2023-09-18T06:43:32;89777.63;;;14.54;100.00
46782;BME280;32541;46.298;11.506;2023-09-18T06:45:58;89765.09;;;14.65;100.00
46782;BME280;32541;46.298;11.506;2023-09-18T06:48:24;89758.38;;;14.79;98.98
46782;BME280;32541;46.298;11.506;2023-09-18T06:50:50;89756.22;;;14.78;99.06
46782;BME280;32541;46.298;11.506;2023-09-18T06:53:15;89743.44;;;14.73;100.00
46782;BME280;32541;46.298;11.506;2023-09-18T06:55:40;89744.53;;;14.79;100.00
46782;BME280;32541;46.298;11.506;2023-09-18T06:58:06;89738.88;;;14.89;99.09
46782;BME280;32541;46.298;11.506;2023-09-18T07:00:32;89744.53;;;14.91;99.66
46782;BME280;32541;46.298;11.506;2023-09-18T07:02:57;89745.13;;;15.01;99.40
46782;BME280;32541;46.298;11.506;2023-09-18T07:05:23;89738.00;;;15.10;98.51
46782;BME280;32541;46.298;11.506;2023-09-18T07:07:48;89733.94;;;15.11;98.49
46782;BME280;32541;46.298;11.506;2023-09-18T07:10:14;89724.03;;;15.19;98.90
46782;BME280;32541;46.298;11.506;2023-09-18T07:12:39;89736.28;;;15.39;98.38
46782;BME280;32541;46.298;11.506;2023-09-18T07:15:05;89723.03;;;15.49;97.88
46782;BME280;32541;46.298;11.506;2023-09-18T07:17:32;89723.34;;;15.67;95.29
46782;BME280;32541;46.298;11.506;2023-09-18T07:19:57;89729.38;;;15.64;94.56
46782;BME280;32541;46.298;11.506;2023-09-18T07:22:22;89729.50;;;15.54;95.78
46782;BME280;32541;46.298;11.506;2023-09-18T07:24:48;89732.81;;;15.27;93.89
46782;BME280;32541;46.298;11.506;2023-09-18T07:27:14;89739.19;;;15.18;95.35
46782;BME280;32541;46.298;11.506;2023-09-18T07:29:39;89731.75;;;15.09;94.56
46782;BME280;32541;46.298;11.506;2023-09-18T07:32:05;89739.69;;;15.03;95.20
46782;BME280;32541;46.298;11.506;2023-09-18T07:34:30;89744.03;;;14.94;97.48
46782;BME280;32541;46.298;11.506;2023-09-18T07:36:56;89733.44;;;14.91;99.34
46782;BME280;32541;46.298;11.506;2023-09-18T07:39:21;89727.78;;;15.12;97.75
46782;BME280;32541;46.298;11.506;2023-09-18T07:41:47;89720.66;;;15.09;97.98
46782;BME280;32541;46.298;11.506;2023-09-18T07:44:18;89719.94;;;15.20;97.72
46782;BME280;32541;46.298;11.506;2023-09-18T07:46:44;89712.47;;;15.23;97.82
46782;BME280;32541;46.298;11.506;2023-09-18T07:49:10;89731.09;;;15.34;98.24
46782;BME280;32541;46.298;11.506;2023-09-18T07:51:35;89719.06;;;15.41;98.41
46782;BME280;32541;46.298;11.506;2023-09-18T07:54:01;89725.53;;;15.57;98.39
46782;BME280;32541;46.298;11.506;2023-09-18T07:56:26;89735.69;;;15.29;98.78
46782;BME280;32541;46.298;11.506;2023-09-18T07:58:52;89738.34;;;15.27;99.17
46782;BME280;32541;46.298;11.506;2023-09-18T08:01:17;89739.53;;;15.47;99.62
46782;BME280;32541;46.298;11.506;2023-09-18T08:03:43;89739.41;;;15.34;98.62
46782;BME280;32541;46.298;11.506;2023-09-18T08:06:08;89744.97;;;15.34;97.97
46782;BME280;32541;46.298;11.506;2023-09-18T08:08:34;89727.94;;;15.51;97.03
46782;BME280;32541;46.298;11.506;2023-09-18T08:11:07;89733.59;;;15.65;97.16
46782;BME280;32541;46.298;11.506;2023-09-18T08:13:33;89738.13;;;15.72;96.63
46782;BME280;32541;46.298;11.506;2023-09-18T08:15:59;89730.69;;;15.63;97.24
46782;BME280;32541;46.298;11.506;2023-09-18T08:18:24;89705.44;;;15.33;98.29
46782;BME280;32541;46.298;11.506;2023-09-18T08:20:52;89686.88;;;15.47;97.42
46782;BME280;32541;46.298;11.506;2023-09-18T08:23:17;89683.34;;;15.10;99.74
46782;BME280;32541;46.298;11.506;2023-09-18T08:25:43;89685.53;;;15.00;100.00
46782;BME280;32541;46.298;11.506;2023-09-18T08:28:08;89679.53;;;14.80;100.00
46782;BME280;32541;46.298;11.506;2023-09-18T08:30:34;89685.06;;;14.80;100.00
46782;BME280;32541;46.298;11.506;2023-09-18T08:32:59;89679.78;;;14.96;100.00
46782;BME280;32541;46.298;11.506;2023-09-18T08:35:25;89668.28;;;15.13;98.55
46782;BME280;32541;46.298;11.506;2023-09-18T08:37:54;89671.03;;;15.25;98.00
46782;BME280;32541;46.298;11.506;2023-09-18T08:40:20;89670.34;;;15.13;97.51
46782;BME280;32541;46.298;11.506;2023-09-18T08:42:47;89672.63;;;15.16;96.64
46782;BME280;32541;46.298;11.506;2023-09-18T08:45:30;89661.00;;;15.31;96.23
46782;BME280;32541;46.298;11.506;2023-09-18T08:47:59;89668.06;;;15.46;96.58
46782;BME280;32541;46.298;11.506;2023-09-18T08:50:25;89674.03;;;15.66;97.73
46782;BME280;32541;46.298;11.506;2023-09-18T08:52:50;89675.13;;;15.86;97.37
46782;BME280;32541;46.298;11.506;2023-09-18T08:55:17;89678.25;;;15.92;97.20
46782;BME280;32541;46.298;11.506;2023-09-18T08:57:44;89676.03;;;16.02;95.40
46782;BME280;32541;46.298;11.506;2023-09-18T09:00:12;89677.69;;;16.07;94.88
46782;BME280;32541;46.298;11.506;2023-09-18T09:02:43;89671.84;;;16.15;94.20
46782;BME280;32541;46.298;11.506;2023-09-18T09:05:08;89660.47;;;16.22;93.94
46782;BME280;32541;46.298;11.506;2023-09-18T09:07:34;89665.19;;;16.33;92.83
46782;BME280;32541;46.298;11.506;2023-09-18T09:10:00;89671.97;;;16.30;90.69
46782;BME280;32541;46.298;11.506;2023-09-18T09:12:49;89660.34;;;15.81;92.94
46782;BME280;32541;46.298;11.506;2023-09-18T09:15:16;89652.28;;;15.99;92.86
46782;BME280;32541;46.298;11.506;2023-09-18T09:17:42;89646.84;;;16.01;92.68
46782;BME280;32541;46.298;11.506;2023-09-18T09:20:11;89644.06;;;16.01;92.57
46782;BME280;32541;46.298;11.506;2023-09-18T09:22:38;89633.94;;;16.19;93.02
46782;BME280;32541;46.298;11.506;2023-09-18T09:27:47;89624.88;;;16.71;88.73
46782;BME280;32541;46.298;11.506;2023-09-18T09:30:18;89629.97;;;16.36;89.73
46782;BME280;32541;46.298;11.506;2023-09-18T09:32:47;89612.19;;;16.27;90.64
46782;BME280;32541;46.298;11.506;2023-09-18T09:37:47;89629.88;;;16.47;92.12
46782;BME280;32541;46.298;11.506;2023-09-18T09:40:13;89619.84;;;16.67;89.76
46782;BME280;32541;46.298;11.506;2023-09-18T09:42:40;89616.75;;;16.61;89.35
46782;BME280;32541;46.298;11.506;2023-09-18T09:45:12;89616.31;;;16.81;88.89
46782;BME280;32541;46.298;11.506;2023-09-18T09:47:38;89603.25;;;16.97;88.67
46782;BME280;32541;46.298;11.506;2023-09-18T09:50:08;89614.75;;;17.05;89.23
46782;BME280;32541;46.298;11.506;2023-09-18T09:52:42;89617.75;;;17.09;88.35
46782;BME280;32541;46.298;11.506;2023-09-18T09:57:59;89611.06;;;16.87;87.72
46782;BME280;32541;46.298;11.506;2023-09-18T10:00:49;89610.56;;;17.04;88.12
46782;BME280;32541;46.298;11.506;2023-09-18T10:03:19;89629.59;;;16.82;86.63
46782;BME280;32541;46.298;11.506;2023-09-18T10:05:48;89612.50;;;17.01;86.62
46782;BME280;32541;46.298;11.506;2023-09-18T10:08:23;89614.88;;;17.07;86.98
46782;BME280;32541;46.298;11.506;2023-09-18T10:10:56;89614.88;;;17.07;86.94
46782;BME280;32541;46.298;11.506;2023-09-18T10:13:47;89619.59;;;17.18;87.27
46782;BME280;32541;46.298;11.506;2023-09-18T10:16:18;89608.41;;;17.32;85.05
46782;BME280;32541;46.298;11.506;2023-09-18T10:24:08;89584.78;;;17.60;85.03
46782;BME280;32541;46.298;11.506;2023-09-18T10:26:42;89578.34;;;17.71;83.65
46782;BME280;32541;46.298;11.506;2023-09-18T10:29:13;89577.75;;;17.88;81.29
46782;BME280;32541;46.298;11.506;2023-09-18T10:31:39;89578.56;;;17.91;81.16
46782;BME280;32541;46.298;11.506;2023-09-18T10:34:09;89564.94;;;17.81;81.22
46782;BME280;32541;46.298;11.506;2023-09-18T10:36:37;89572.56;;;17.81;85.26
46782;BME280;32541;46.298;11.506;2023-09-18T10:39:03;89558.28;;;17.72;80.60
46782;BME280;32541;46.298;11.506;2023-09-18T10:41:33;89540.78;;;17.86;81.27
46782;BME280;32541;46.298;11.506;2023-09-18T10:43:59;89523.19;;;17.97;83.34
46782;BME280;32541;46.298;11.506;2023-09-18T10:46:26;89541.16;;;18.09;82.28
46782;BME280;32541;46.298;11.506;2023-09-18T10:48:52;89546.69;;;17.62;82.24
46782;BME280;32541;46.298;11.506;2023-09-18T10:51:23;89549.53;;;17.64;80.71
46782;BME280;32541;46.298;11.506;2023-09-18T10:53:50;89580.59;;;17.45;83.25
46782;BME280;32541;46.298;11.506;2023-09-18T10:56:19;89572.44;;;17.20;81.61
46782;BME280;32541;46.298;11.506;2023-09-18T10:58:45;89559.31;;;17.36;80.81
46782;BME280;32541;46.298;11.506;2023-09-18T11:01:13;89553.56;;;17.61;80.99
46782;BME280;32541;46.298;11.506;2023-09-18T11:03:39;89553.78;;;17.65;82.12
46782;BME280;32541;46.298;11.506;2023-09-18T11:06:08;89535.47;;;17.76;82.10
46782;BME280;32541;46.298;11.506;2023-09-18T11:08:47;89513.16;;;17.90;82.34
46782;BME280;32541;46.298;11.506;2023-09-18T11:11:13;89516.56;;;18.04;83.40
46782;BME280;32541;46.298;11.506;2023-09-18T11:13:43;89538.72;;;17.86;81.83
46782;BME280;32541;46.298;11.506;2023-09-18T11:19:16;89550.75;;;17.75;79.83
46782;BME280;32541;46.298;11.506;2023-09-18T11:21:43;89547.00;;;17.84;81.29
46782;BME280;32541;46.298;11.506;2023-09-18T11:24:16;89536.03;;;17.72;79.94
46782;BME280;32541;46.298;11.506;2023-09-18T11:26:44;89523.72;;;17.77;81.25
46782;BME280;32541;46.298;11.506;2023-09-18T11:29:11;89528.94;;;18.01;81.77
46782;BME280;32541;46.298;11.506;2023-09-18T11:36:45;89497.25;;;18.23;83.26
46782;BME280;32541;46.298;11.506;2023-09-18T11:39:12;89506.56;;;18.30;83.41
46782;BME280;32541;46.298;11.506;2023-09-18T11:41:38;89496.56;;;18.07;83.96
46782;BME280;32541;46.298;11.506;2023-09-18T11:46:38;89521.84;;;17.98;82.62
46782;BME280;32541;46.298;11.506;2023-09-18T11:49:08;89528.13;;;17.83;81.14
46782;BME280;32541;46.298;11.506;2023-09-18T11:51:38;89527.41;;;17.98;81.04
46782;BME280;32541;46.298;11.506;2023-09-18T11:54:05;89510.47;;;17.92;82.13
46782;BME280;32541;46.298;11.506;2023-09-18T11:56:33;89512.16;;;17.99;82.09
46782;BME280;32541;46.298;11.506;2023-09-18T11:58:58;89513.06;;;18.03;81.93
46782;BME280;32541;46.298;11.506;2023-09-18T12:01:25;89511.63;;;18.18;81.57
46782;BME280;32541;46.298;11.506;2023-09-18T12:03:55;89518.72;;;18.21;81.22
46782;BME280;32541;46.298;11.506;2023-09-18T12:06:21;89519.88;;;18.16;82.93
46782;BME280;32541;46.298;11.506;2023-09-18T12:08:46;89534.06;;;18.06;83.62
46782;BME280;32541;46.298;11.506;2023-09-18T12:11:13;89529.59;;;17.99;84.48
46782;BME280;32541;46.298;11.506;2023-09-18T12:13:42;89531.53;;;17.97;85.68
46782;BME280;32541;46.298;11.506;2023-09-18T12:16:08;89516.09;;;17.94;86.12
46782;BME280;32541;46.298;11.506;2023-09-18T12:18:35;89503.38;;;18.04;85.80
46782;BME280;32541;46.298;11.506;2023-09-18T12:21:05;89498.34;;;18.01;86.96
46782;BME280;32541;46.298;11.506;2023-09-18T12:23:38;89493.50;;;18.01;88.22
46782;BME280;32541;46.298;11.506;2023-09-18T12:26:04;89492.78;;;18.01;87.79
46782;BME280;32541;46.298;11.506;2023-09-18T12:28:33;89499.06;;;18.01;86.97
46782;BME280;32541;46.298;11.506;2023-09-18T12:31:00;89501.19;;;18.03;86.42
46782;BME280;32541;46.298;11.506;2023-09-18T12:33:33;89503.25;;;18.18;87.01
46782;BME280;32541;46.298;11.506;2023-09-18T12:35:58;89504.44;;;18.13;87.06
46782;BME280;32541;46.298;11.506;2023-09-18T12:38:24;89513.25;;;18.07;87.55
46782;BME280;32541;46.298;11.506;2023-09-18T12:40:53;89515.94;;;18.05;87.41
46782;BME280;32541;46.298;11.506;2023-09-18T12:43:20;89518.63;;;18.03;91.97
46782;BME280;32541;46.298;11.506;2023-09-18T12:45:48;89526.34;;;18.05;91.76
46782;BME280;32541;46.298;11.506;2023-09-18T12:48:14;89516.47;;;18.02;95.68
46782;BME280;32541;46.298;11.506;2023-09-18T12:50:40;89516.97;;;17.67;91.15
46782;BME280;32541;46.298;11.506;2023-09-18T12:53:10;89510.25;;;17.56;91.93
46782;BME280;32541;46.298;11.506;2023-09-18T12:55:37;89511.25;;;17.63;93.21
46782;BME280;32541;46.298;11.506;2023-09-18T12:58:03;89519.22;;;17.70;94.90
46782;BME280;32541;46.298;11.506;2023-09-18T13:00:34;89520.69;;;17.71;95.91
46782;BME280;32541;46.298;11.506;2023-09-18T13:03:01;89531.00;;;17.85;98.25
46782;BME280;32541;46.298;11.506;2023-09-18T13:05:29;89526.69;;;17.66;99.79
46782;BME280;32541;46.298;11.506;2023-09-18T13:08:04;89523.91;;;17.66;100.00
46782;BME280;32541;46.298;11.506;2023-09-18T13:10:46;89528.66;;;17.63;100.00
46782;BME280;32541;46.298;11.506;2023-09-18T13:13:19;89529.72;;;17.56;100.00